Time;durP1;ratioP1;P1;durP2;ratioP2;P2;SDS_P1;SDS_P2;PMS_P1;PMS_P2;Temp;Humidity;BMP_temperature;BMP_pressure;BME280_temperature;BME280_humidity;BME280_pressure;Samples;Min_cycle;Max_cycle;Signal;HPM_P1;HPM_P2
2021/08/18 00:04:05;;;;;;;;;16.00;15.00;;;;;;;;6492498;39;9172;-62
2021/08/18 00:10:09;;;;;;;;;18.67;15.00;;;;;;;;6491274;39;8947;-61
2021/08/18 00:16:12;;;;;;;;;18.00;14.33;;;;;;;;6492188;39;8901;-61
2021/08/18 00:22:14;;;;;;;;;15.00;14.00;;;;;;;;6491683;31;9067;-61
2021/08/18 00:28:17;;;;;;;;;16.00;14.00;;;;;;;;6491465;46;9061;-61
2021/08/18 00:34:19;;;;;;;;;17.00;17.00;;;;;;;;6491853;39;9634;-61
2021/08/18 00:40:22;;;;;;;;;19.33;18.00;;;;;;;;6491646;31;8977;-62
2021/08/18 00:46:25;;;;;;;;;17.67;16.67;;;;;;;;6491411;39;8947;-61
2021/08/18 00:52:27;;;;;;;;;17.33;16.00;;;;;;;;6490918;39;9011;-62
2021/08/18 00:58:30;;;;;;;;;21.33;18.00;;;;;;;;6490751;46;9059;-61
2021/08/18 01:04:32;;;;;;;;;15.33;15.00;;;;;;;;6492404;39;9181;-62
2021/08/18 01:10:37;;;;;;;;;14.33;14.00;;;;;;;;6491809;31;9593;-62
2021/08/18 01:16:43;;;;;;;;;16.67;15.00;;;;;;;;6491364;39;8972;-62
2021/08/18 01:22:45;;;;;;;;;14.00;14.00;;;;;;;;6490648;31;8943;-61
2021/08/18 01:28:50;;;;;;;;;13.67;13.67;;;;;;;;6490559;46;8979;-61
2021/08/18 01:34:52;;;;;;;;;13.33;13.33;;;;;;;;6491245;39;9067;-62
2021/08/18 01:40:55;;;;;;;;;12.67;12.67;;;;;;;;6490713;39;9956;-62
2021/08/18 01:46:57;;;;;;;;;16.67;15.33;;;;;;;;6491461;39;8996;-61
2021/08/18 01:53:00;;;;;;;;;13.00;13.00;;;;;;;;6491403;31;8957;-62
2021/08/18 01:59:13;;;;;;;;;14.00;12.33;;;;;;;;6491006;31;8955;-61
2021/08/18 02:05:16;;;;;;;;;16.67;15.67;;;;;;;;6491736;39;9083;-62
2021/08/18 02:11:18;;;;;;;;;15.67;15.00;;;;;;;;6490259;39;8967;-62
2021/08/18 02:17:20;;;;;;;;;18.33;16.33;;;;;;;;6491148;39;8960;-62
2021/08/18 02:23:23;;;;;;;;;14.67;14.67;;;;;;;;6490085;46;9006;-62
2021/08/18 02:29:25;;;;;;;;;15.67;15.67;;;;;;;;6490289;39;9060;-62
2021/08/18 02:35:30;;;;;;;;;13.67;12.00;;;;;;;;6490720;39;9074;-62
2021/08/18 02:41:33;;;;;;;;;12.67;12.67;;;;;;;;6491061;31;8956;-62
2021/08/18 02:47:36;;;;;;;;;19.33;18.33;;;;;;;;6491101;39;8998;-62
2021/08/18 02:53:38;;;;;;;;;19.33;18.00;;;;;;;;6490498;39;9084;-63
2021/08/18 02:59:40;;;;;;;;;24.33;22.33;;;;;;;;6490589;39;9035;-62
2021/08/18 03:05:42;;;;;;;;;18.33;18.33;;;;;;;;6490925;39;9163;-62
2021/08/18 03:11:44;;;;;;;;;20.00;18.67;;;;;;;;6489944;39;9694;-63
2021/08/18 03:17:47;;;;;;;;;23.00;21.00;;;;;;;;6490704;31;8993;-62
2021/08/18 03:23:50;;;;;;;;;24.00;22.00;;;;;;;;6489777;47;9080;-62
2021/08/18 03:29:53;;;;;;;;;22.67;21.67;;;;;;;;6490115;47;8964;-62
2021/08/18 03:35:56;;;;;;;;;23.00;23.00;;;;;;;;6489720;47;8986;-61
2021/08/18 03:41:58;;;;;;;;;27.33;25.00;;;;;;;;6489263;47;8980;-62
2021/08/18 03:48:00;;;;;;;;;20.00;19.00;;;;;;;;6490261;39;9638;-62
2021/08/18 03:54:02;;;;;;;;;25.33;24.00;;;;;;;;6489186;47;8977;-62
2021/08/18 04:00:09;;;;;;;;;21.00;19.00;;;;;;;;6491002;39;8932;-61
2021/08/18 04:06:11;;;;;;;;;23.33;23.33;;;;;;;;6467143;47;9085;-61
2021/08/18 04:12:14;;;;;;;;;21.00;20.00;;;;;;;;6491560;39;9051;-65
2021/08/18 04:18:16;;;;;;;;;19.00;19.00;;;;;;;;6490790;47;8977;-62
2021/08/18 04:24:19;;;;;;;;;18.33;17.00;;;;;;;;6493120;31;9003;-62
2021/08/18 04:30:22;;;;;;;;;20.33;20.33;;;;;;;;6494212;31;8946;-63
2021/08/18 04:36:25;;;;;;;;;22.33;21.00;;;;;;;;6493744;31;9079;-63
2021/08/18 04:42:27;;;;;;;;;23.00;22.67;;;;;;;;6493894;39;8965;-62
2021/08/18 04:48:29;;;;;;;;;27.33;26.00;;;;;;;;6493216;39;8976;-62
2021/08/18 04:54:31;;;;;;;;;25.33;23.67;;;;;;;;6493710;46;8941;-63
2021/08/18 05:00:34;;;;;;;;;21.33;20.33;;;;;;;;6493070;39;8965;-64
2021/08/18 05:06:36;;;;;;;;;24.67;22.33;;;;;;;;6494816;31;8879;-62
2021/08/18 05:12:40;;;;;;;;;27.67;27.00;;;;;;;;6492123;46;8985;-63
2021/08/18 05:18:42;;;;;;;;;21.33;19.00;;;;;;;;6492251;31;9578;-63
2021/08/18 05:24:44;;;;;;;;;24.33;22.00;;;;;;;;6491279;39;8968;-59
2021/08/18 05:30:47;;;;;;;;;27.00;24.67;;;;;;;;6491114;46;9048;-59
2021/08/18 05:36:49;;;;;;;;;27.00;24.67;;;;;;;;6490348;46;8975;-59
2021/08/18 05:42:51;;;;;;;;;20.33;18.67;;;;;;;;6489315;31;9037;-61
2021/08/18 05:48:54;;;;;;;;;23.00;22.00;;;;;;;;6488370;31;9087;-59
2021/08/18 05:55:00;;;;;;;;;24.33;22.00;;;;;;;;6488767;39;8971;-60
2021/08/18 06:01:03;;;;;;;;;30.00;27.67;;;;;;;;6487680;39;8976;-60
2021/08/18 06:07:05;;;;;;;;;33.00;27.50;;;;;;;;6487742;39;9005;-59
2021/08/18 06:13:07;;;;;;;;;26.50;24.25;;;;;;;;6488907;39;9079;-59
2021/08/18 06:19:10;;;;;;;;;21.25;20.25;;;;;;;;6486658;46;9124;-59
2021/08/18 06:25:12;;;;;;;;;26.00;25.75;;;;;;;;6483642;31;8967;-60
2021/08/18 06:31:15;;;;;;;;;27.50;25.00;;;;;;;;6487008;39;8985;-59
2021/08/18 06:37:17;;;;;;;;;21.75;20.50;;;;;;;;6484987;46;9058;-60
2021/08/18 06:43:20;;;;;;;;;25.50;24.00;;;;;;;;6486671;39;8988;-61
2021/08/18 06:49:23;;;;;;;;;31.25;29.00;;;;;;;;6484409;39;9024;-60
2021/08/18 06:55:25;;;;;;;;;23.50;23.25;;;;;;;;6484164;46;9052;-59
2021/08/18 07:01:27;;;;;;;;;27.75;23.75;;;;;;;;6484954;39;9040;-60
2021/08/18 07:07:30;;;;;;;;;28.00;26.00;;;;;;;;6483646;31;9066;-61
2021/08/18 07:13:32;;;;;;;;;25.00;24.50;;;;;;;;6487468;31;9789;-60
2021/08/18 07:19:34;;;;;;;;;24.00;21.75;;;;;;;;6485233;39;9193;-61
2021/08/18 07:25:37;;;;;;;;;23.75;23.50;;;;;;;;6486187;39;9019;-61
2021/08/18 07:31:40;;;;;;;;;25.50;23.00;;;;;;;;6485816;39;9057;-61
2021/08/18 07:37:42;;;;;;;;;24.75;22.50;;;;;;;;6485649;39;9003;-60
2021/08/18 07:43:45;;;;;;;;;27.50;26.00;;;;;;;;6486131;39;9698;-59
2021/08/18 07:49:47;;;;;;;;;28.25;26.75;;;;;;;;6482997;47;8984;-60
2021/08/18 07:55:49;;;;;;;;;19.50;17.75;;;;;;;;6482311;39;9126;-60
2021/08/18 08:01:55;;;;;;;;;24.00;23.75;;;;;;;;6487807;31;9221;-60
2021/08/18 08:07:57;;;;;;;;;22.50;20.25;;;;;;;;6485504;31;8991;-60
2021/08/18 08:14:01;;;;;;;;;23.75;22.75;;;;;;;;6486957;31;9549;-59
2021/08/18 08:20:04;;;;;;;;;24.25;21.50;;;;;;;;6486132;31;9001;-59
2021/08/18 08:26:06;;;;;;;;;27.75;24.50;;;;;;;;6486928;39;9044;-60
2021/08/18 08:32:10;;;;;;;;;23.75;22.75;;;;;;;;6487057;39;9105;-60
2021/08/18 08:38:13;;;;;;;;;25.00;24.00;;;;;;;;6488725;39;9208;-60
2021/08/18 08:44:21;;;;;;;;;25.75;25.25;;;;;;;;6487652;39;10045;-60
2021/08/18 08:50:24;;;;;;;;;20.75;20.25;;;;;;;;6486797;31;8996;-59
2021/08/18 08:56:26;;;;;;;;;28.00;21.50;;;;;;;;6487105;31;10319;-60
2021/08/18 09:02:29;;;;;;;;;23.00;20.25;;;;;;;;6488023;31;8998;-59
2021/08/18 09:08:33;;;;;;;;;18.50;18.50;;;;;;;;6486054;39;9061;-62
2021/08/18 09:14:36;;;;;;;;;20.25;20.25;;;;;;;;6487711;46;8992;-60
2021/08/18 09:20:41;;;;;;;;;22.50;21.25;;;;;;;;6487715;39;8999;-58
2021/08/18 09:26:56;;;;;;;;;23.25;22.50;;;;;;;;6488261;39;8961;-59
2021/08/18 09:33:00;;;;;;;;;23.50;22.75;;;;;;;;6486928;31;8999;-59
2021/08/18 09:39:24;;;;;;;;;29.25;25.00;;;;;;;;6487336;31;8992;-60
2021/08/18 09:45:31;;;;;;;;;29.25;26.75;;;;;;;;6487591;39;9046;-61
2021/08/18 09:51:34;;;;;;;;;25.75;25.75;;;;;;;;6484977;31;9101;-59
2021/08/18 09:57:37;;;;;;;;;27.50;25.00;;;;;;;;6485813;46;9146;-59
2021/08/18 10:03:44;;;;;;;;;35.75;34.00;;;;;;;;6482595;31;9032;-60
2021/08/18 10:09:49;;;;;;;;;22.00;19.75;;;;;;;;6482403;46;8991;-59
2021/08/18 10:15:52;;;;;;;;;27.50;26.25;;;;;;;;6484731;39;9008;-60
2021/08/18 10:21:59;;;;;;;;;24.75;23.75;;;;;;;;6486602;39;9207;-59
2021/08/18 10:28:07;;;;;;;;;21.75;19.75;;;;;;;;6486322;39;9068;-60
2021/08/18 10:34:38;;;;;;;;;47.25;41.00;;;;;;;;6485748;31;8963;-60
2021/08/18 10:40:40;;;;;;;;;35.00;33.25;;;;;;;;6486176;39;8969;-58
2021/08/18 10:47:11;;;;;;;;;27.25;23.25;;;;;;;;6485542;31;8995;-60
2021/08/18 10:53:27;;;;;;;;;30.00;26.25;;;;;;;;6486341;31;8992;-60
2021/08/18 10:59:35;;;;;;;;;20.50;17.50;;;;;;;;6487963;31;9007;-58
2021/08/18 11:05:38;;;;;;;;;28.50;24.50;;;;;;;;6486060;31;9004;-59
2021/08/18 11:11:42;;;;;;;;;26.00;24.25;;;;;;;;6487401;31;9676;-59
2021/08/18 11:17:52;;;;;;;;;29.33;27.33;;;;;;;;6488609;39;8998;-59
2021/08/18 11:23:58;;;;;;;;;29.25;24.25;;;;;;;;6489533;39;9019;-60
2021/08/18 11:30:00;;;;;;;;;25.25;23.75;;;;;;;;6489130;47;8986;-59
2021/08/18 11:36:13;;;;;;;;;23.50;21.50;;;;;;;;6491120;31;9106;-59
2021/08/18 11:42:20;;;;;;;;;24.00;21.75;;;;;;;;6490733;39;9058;-58
2021/08/18 11:48:22;;;;;;;;;23.75;22.75;;;;;;;;6490812;46;9067;-60
2021/08/18 11:54:25;;;;;;;;;24.50;22.50;;;;;;;;6490620;46;8947;-59
2021/08/18 12:00:33;;;;;;;;;30.75;27.00;;;;;;;;6490621;46;9135;-59
2021/08/18 12:06:37;;;;;;;;;20.50;18.25;;;;;;;;6489890;39;9680;-59
2021/08/18 12:12:40;;;;;;;;;21.00;20.25;;;;;;;;6492076;39;9429;-60
2021/08/18 12:18:42;;;;;;;;;26.75;25.75;;;;;;;;6489608;46;9053;-61
2021/08/18 12:24:53;;;;;;;;;23.75;19.00;;;;;;;;6491455;46;8954;-59
2021/08/18 12:31:05;;;;;;;;;27.50;26.50;;;;;;;;6488532;39;9026;-60
2021/08/18 12:37:11;;;;;;;;;22.25;21.50;;;;;;;;6489468;39;8974;-60
2021/08/18 12:43:19;;;;;;;;;30.75;29.75;;;;;;;;6490640;31;8988;-60
2021/08/18 12:49:27;;;;;;;;;15.75;15.75;;;;;;;;6488534;39;9754;-61
2021/08/18 12:55:30;;;;;;;;;23.00;22.75;;;;;;;;6492366;31;9036;-61
2021/08/18 13:01:32;;;;;;;;;26.75;22.25;;;;;;;;6490720;31;9509;-59
2021/08/18 13:07:34;;;;;;;;;22.75;22.75;;;;;;;;6490624;39;8925;-62
2021/08/18 13:13:38;;;;;;;;;23.50;23.50;;;;;;;;6490113;46;9205;-61
2021/08/18 13:19:42;;;;;;;;;22.50;21.25;;;;;;;;6491180;31;9009;-60
2021/08/18 13:25:44;;;;;;;;;22.50;22.50;;;;;;;;6492687;39;9652;-61
2021/08/18 13:31:55;;;;;;;;;21.50;20.25;;;;;;;;6489592;39;9003;-61
2021/08/18 13:38:00;;;;;;;;;20.50;19.75;;;;;;;;6491384;39;9016;-63
2021/08/18 13:44:03;;;;;;;;;19.50;19.50;;;;;;;;6489273;39;8947;-64
2021/08/18 13:50:07;;;;;;;;;20.25;19.75;;;;;;;;6488481;39;9032;-63
2021/08/18 13:56:09;;;;;;;;;21.00;21.00;;;;;;;;6490202;31;9014;-64
2021/08/18 14:02:11;;;;;;;;;27.00;26.00;;;;;;;;6490472;39;9062;-63
2021/08/18 14:08:15;;;;;;;;;26.25;26.25;;;;;;;;6491554;39;8900;-64
2021/08/18 14:14:17;;;;;;;;;23.75;22.50;;;;;;;;6490867;31;9003;-63
2021/08/18 14:20:20;;;;;;;;;21.50;21.50;;;;;;;;6490715;46;8978;-63
2021/08/18 14:26:22;;;;;;;;;23.00;23.00;;;;;;;;6491752;39;8943;-64
2021/08/18 14:32:24;;;;;;;;;19.75;19.00;;;;;;;;6491108;39;9857;-63
2021/08/18 14:38:26;;;;;;;;;21.50;20.00;;;;;;;;6491164;39;8943;-64
2021/08/18 14:44:29;;;;;;;;;18.00;17.50;;;;;;;;6491084;39;8950;-64
2021/08/18 14:50:33;;;;;;;;;23.75;22.75;;;;;;;;6490430;46;8975;-62
2021/08/18 14:56:35;;;;;;;;;19.75;18.75;;;;;;;;6490951;46;8982;-63
2021/08/18 15:02:38;;;;;;;;;23.00;22.50;;;;;;;;6489678;46;9096;-62
2021/08/18 15:08:40;;;;;;;;;27.50;23.25;;;;;;;;6490696;39;8984;-63
2021/08/18 15:14:43;;;;;;;;;23.50;22.00;;;;;;;;6491396;31;9117;-63
2021/08/18 15:20:45;;;;;;;;;20.50;18.75;;;;;;;;6490280;31;8973;-63
2021/08/18 15:26:47;;;;;;;;;27.25;24.75;;;;;;;;6491110;39;9061;-64
2021/08/18 15:32:50;;;;;;;;;23.00;20.50;;;;;;;;6490291;39;8980;-63
2021/08/18 15:38:53;;;;;;;;;22.00;19.75;;;;;;;;6490561;31;8955;-64
2021/08/18 15:44:55;;;;;;;;;23.75;21.00;;;;;;;;6490085;47;8969;-63
2021/08/18 15:50:58;;;;;;;;;23.75;23.50;;;;;;;;6490144;39;9609;-65
2021/08/18 15:57:01;;;;;;;;;24.25;22.25;;;;;;;;6490685;47;9035;-63
2021/08/18 16:03:04;;;;;;;;;23.00;23.00;;;;;;;;6489955;39;9118;-64
2021/08/18 16:09:08;;;;;;;;;20.75;20.75;;;;;;;;6490950;39;9614;-64
2021/08/18 16:15:10;;;;;;;;;25.00;21.50;;;;;;;;6490788;31;8987;-63
2021/08/18 16:21:12;;;;;;;;;24.00;22.25;;;;;;;;6490824;31;9043;-63
2021/08/18 16:27:15;;;;;;;;;21.75;21.75;;;;;;;;6493058;39;9003;-62
2021/08/18 16:33:17;;;;;;;;;21.50;20.75;;;;;;;;6491655;39;9000;-62
2021/08/18 16:39:19;;;;;;;;;29.00;24.50;;;;;;;;6492561;39;8928;-62
2021/08/18 16:45:21;;;;;;;;;25.00;22.75;;;;;;;;6492374;39;8960;-63
2021/08/18 16:51:24;;;;;;;;;26.25;23.00;;;;;;;;6490990;39;9085;-63
2021/08/18 16:57:27;;;;;;;;;23.25;21.00;;;;;;;;6492365;39;8988;-63
2021/08/18 17:03:30;;;;;;;;;23.75;20.75;;;;;;;;6492343;39;9722;-62
2021/08/18 17:09:33;;;;;;;;;21.25;20.50;;;;;;;;6492611;39;8959;-64
2021/08/18 17:15:38;;;;;;;;;20.50;19.25;;;;;;;;6492229;39;9022;-63
2021/08/18 17:21:41;;;;;;;;;19.50;17.00;;;;;;;;6492572;39;8968;-63
2021/08/18 17:27:45;;;;;;;;;22.75;19.00;;;;;;;;6492613;39;8963;-63
2021/08/18 17:33:48;;;;;;;;;21.75;21.75;;;;;;;;6490949;46;8961;-64
2021/08/18 17:39:50;;;;;;;;;18.50;17.00;;;;;;;;6492344;31;9006;-63
2021/08/18 17:45:53;;;;;;;;;19.00;18.25;;;;;;;;6491996;39;8976;-63
2021/08/18 17:51:57;;;;;;;;;22.00;20.67;;;;;;;;6532002;36;9008;-64
2021/08/18 17:57:59;;;;;;;;;20.00;20.00;;;;;;;;6491749;39;9728;-61
2021/08/18 18:04:02;;;;;;;;;24.25;23.25;;;;;;;;6491670;39;8991;-63
2021/08/18 18:10:06;;;;;;;;;23.75;23.50;;;;;;;;6489909;39;8965;-63
2021/08/18 18:16:09;;;;;;;;;25.50;22.50;;;;;;;;6489905;39;9014;-63
2021/08/18 18:22:11;;;;;;;;;22.33;19.67;;;;;;;;6489313;46;8973;-64
2021/08/18 18:28:13;;;;;;;;;20.00;19.75;;;;;;;;6490206;39;9719;-63
2021/08/18 18:34:16;;;;;;;;;25.50;20.50;;;;;;;;6489414;39;8990;-63
2021/08/18 18:40:19;;;;;;;;;23.00;21.25;;;;;;;;6489915;31;9135;-62
2021/08/18 18:46:22;;;;;;;;;23.00;21.00;;;;;;;;6522849;36;8944;-63
2021/08/18 18:52:25;;;;;;;;;21.75;15.75;;;;;;;;6489066;39;9058;-63
2021/08/18 18:58:28;;;;;;;;;17.00;17.00;;;;;;;;6489545;39;9014;-63
2021/08/18 19:04:31;;;;;;;;;19.00;18.67;;;;;;;;6488803;39;9599;-63
2021/08/18 19:10:33;;;;;;;;;27.33;21.67;;;;;;;;6488680;31;8986;-63
2021/08/18 19:16:37;;;;;;;;;23.33;22.67;;;;;;;;6488711;39;10375;-64
2021/08/18 19:22:40;;;;;;;;;29.67;24.67;;;;;;;;6488737;31;9646;-63
2021/08/18 19:28:43;;;;;;;;;26.00;22.67;;;;;;;;6488845;47;8997;-65
2021/08/18 19:34:46;;;;;;;;;24.33;21.33;;;;;;;;6488637;47;9090;-63
2021/08/18 19:40:48;;;;;;;;;20.67;20.67;;;;;;;;6488524;47;8982;-62
2021/08/18 19:46:51;;;;;;;;;28.00;23.00;;;;;;;;6488485;46;8970;-65
2021/08/18 19:52:53;;;;;;;;;24.00;20.33;;;;;;;;6489021;31;9065;-64
2021/08/18 19:58:57;;;;;;;;;16.67;16.67;;;;;;;;6490620;39;9068;-63
2021/08/18 20:05:01;;;;;;;;;21.33;21.00;;;;;;;;6490668;39;9107;-64
2021/08/18 20:11:09;;;;;;;;;18.33;16.33;;;;;;;;6491387;39;9617;-63
2021/08/18 20:17:11;;;;;;;;;9.50;8.00;;;;;;;;6490384;39;8959;-63
2021/08/18 20:23:14;;;;;;;;;12.00;7.75;;;;;;;;6489865;46;9078;-63
2021/08/18 20:29:17;;;;;;;;;5.67;5.67;;;;;;;;6490265;39;9128;-63
2021/08/18 20:35:19;;;;;;;;;3.00;3.00;;;;;;;;6490370;39;9118;-62
2021/08/18 20:41:21;;;;;;;;;5.33;3.67;;;;;;;;6490580;46;9534;-63
2021/08/18 20:47:24;;;;;;;;;3.50;3.50;;;;;;;;6490040;39;9054;-62
2021/08/18 20:53:26;;;;;;;;;2.00;2.00;;;;;;;;6490206;39;9168;-63
2021/08/18 20:59:30;;;;;;;;;2.67;2.67;;;;;;;;6490767;39;9078;-61
2021/08/18 21:05:32;;;;;;;;;1.33;1.33;;;;;;;;6489542;47;9082;-63
2021/08/18 21:11:35;;;;;;;;;5.33;4.00;;;;;;;;6489932;46;8963;-63
2021/08/18 21:17:37;;;;;;;;;3.67;2.00;;;;;;;;6490392;39;10037;-63
2021/08/18 21:23:40;;;;;;;;;3.33;2.67;;;;;;;;6489117;39;9001;-62
2021/08/18 21:29:43;;;;;;;;;1.67;1.00;;;;;;;;6490631;39;9644;-62
2021/08/18 21:35:45;;;;;;;;;1.00;1.00;;;;;;;;6489174;46;9044;-61
2021/08/18 21:41:47;;;;;;;;;2.33;2.33;;;;;;;;6490454;39;9039;-62
2021/08/18 21:47:49;;;;;;;;;1.00;1.00;;;;;;;;6490688;39;8963;-63
2021/08/18 21:53:51;;;;;;;;;4.00;1.67;;;;;;;;6489692;31;8995;-63
2021/08/18 21:59:54;;;;;;;;;1.00;1.00;;;;;;;;6490246;31;9114;-63
2021/08/18 22:05:56;;;;;;;;;1.00;1.00;;;;;;;;6489140;31;9010;-63
2021/08/18 22:11:58;;;;;;;;;1.33;1.00;;;;;;;;6490124;39;9042;-63
2021/08/18 22:18:04;;;;;;;;;1.00;1.00;;;;;;;;6488902;31;8967;-62
2021/08/18 22:24:07;;;;;;;;;0.00;0.00;;;;;;;;6489223;31;9066;-64
2021/08/18 22:30:15;;;;;;;;;1.00;1.00;;;;;;;;6489723;46;9131;-63
2021/08/18 22:36:17;;;;;;;;;6.00;2.33;;;;;;;;6488601;39;8995;-64
2021/08/18 22:42:20;;;;;;;;;1.33;1.00;;;;;;;;6489993;39;9070;-63
2021/08/18 22:48:22;;;;;;;;;2.00;2.00;;;;;;;;6489655;31;8938;-63
2021/08/18 22:54:25;;;;;;;;;2.00;2.00;;;;;;;;6489005;39;9156;-62
2021/08/18 23:00:27;;;;;;;;;2.00;0.00;;;;;;;;6489942;31;9022;-63
2021/08/18 23:06:29;;;;;;;;;2.00;2.00;;;;;;;;6489571;39;9062;-63
2021/08/18 23:12:31;;;;;;;;;5.00;3.67;;;;;;;;6489849;39;8978;-62
2021/08/18 23:18:34;;;;;;;;;1.67;1.67;;;;;;;;6489493;39;9702;-64
2021/08/18 23:24:36;;;;;;;;;3.00;2.33;;;;;;;;6489347;31;9123;-63
2021/08/18 23:30:39;;;;;;;;;6.00;3.00;;;;;;;;6488834;47;9054;-64
2021/08/18 23:36:41;;;;;;;;;4.33;4.00;;;;;;;;6488996;31;9037;-64
2021/08/18 23:42:44;;;;;;;;;1.00;1.00;;;;;;;;6489348;39;9591;-63
2021/08/18 23:48:47;;;;;;;;;3.00;2.33;;;;;;;;6488443;47;8986;-64
2021/08/18 23:54:52;;;;;;;;;2.00;2.00;;;;;;;;6487730;31;9003;-64
